Terminal Aerodrome Forecast
Issued by NWS Riverton, WY

Home | Current Version | Previous Version | Text Only | Print | Product List | Glossary On
Versions: 1 2 3 4 5 6 7 8 9 10 11 12 13 14
746
FTUS45 KRIW 250118 AAA
TAFRIW
TAF AMD
KRIW 250118Z 2501/2524 31017G25KT 6SM -SHRA FEW015 SCT035 OVC050
     FM250230 29015G23KT P6SM VCSH SCT050 BKN070
     FM250400 31014G20KT P6SM SCT080
     FM251300 35014G24KT 6SM -SHSNRA SCT012 BKN020
     FM252100 36012G20KT P6SM SCT025 BKN040=

USA.gov is the U.S. government's official web portal to all federal, state and local government web resources and services.